createdAt,value
2018-03-18T00:01:01.869Z,7.43
2018-03-18T00:02:04.398Z,5.70
2018-03-18T00:03:06.957Z,5.65
2018-03-18T00:04:09.508Z,6.10
2018-03-18T00:05:12.035Z,6.80
2018-03-18T00:06:14.551Z,6.43
2018-03-18T00:07:17.083Z,6.03
2018-03-18T00:08:20.411Z,6.55
2018-03-18T00:09:22.935Z,5.50
2018-03-18T00:10:26.212Z,5.35
2018-03-18T00:11:28.738Z,6.60
2018-03-18T00:12:31.275Z,6.47
2018-03-18T00:13:33.837Z,6.47
2018-03-18T00:14:36.367Z,5.57
2018-03-18T00:15:38.885Z,6.35
2018-03-18T00:16:41.443Z,6.10
2018-03-18T00:17:43.967Z,6.15
2018-03-18T00:18:46.480Z,6.70
2018-03-18T00:19:49.045Z,7.05
2018-03-18T00:20:51.602Z,6.53
2018-03-18T00:21:54.112Z,6.72
2018-03-18T00:22:56.634Z,6.03
2018-03-18T00:23:59.157Z,6.07
2018-03-18T00:25:01.705Z,5.40
2018-03-18T00:26:04.219Z,6.07
2018-03-18T00:27:07.628Z,7.37
2018-03-18T00:28:10.160Z,6.60
2018-03-18T00:29:13.484Z,6.53
2018-03-18T00:30:16.006Z,6.10
2018-03-18T00:31:19.302Z,7.07
2018-03-18T00:32:22.637Z,6.12
2018-03-18T00:33:25.132Z,7.18
2018-03-18T00:34:27.695Z,7.10
2018-03-18T00:35:30.228Z,6.62
2018-03-18T00:36:32.754Z,6.05
2018-03-18T00:37:36.038Z,6.75
2018-03-18T00:38:39.328Z,5.85
2018-03-18T00:39:41.917Z,6.00
2018-03-18T00:40:44.445Z,7.30
2018-03-18T00:41:47.737Z,6.57
2018-03-18T00:42:51.033Z,6.32
2018-03-18T00:43:53.549Z,7.12
2018-03-18T00:44:56.093Z,6.05
2018-03-18T00:45:58.637Z,6.57
2018-03-18T00:47:01.164Z,6.55
2018-03-18T00:48:03.693Z,6.00
2018-03-18T00:49:06.218Z,5.93
2018-03-18T00:50:09.507Z,7.25
2018-03-18T00:51:12.065Z,6.45
2018-03-18T00:52:15.354Z,6.03
2018-03-18T00:53:18.635Z,7.20
2018-03-18T00:54:21.917Z,6.03
2018-03-18T00:55:25.261Z,6.70
2018-03-18T00:56:27.846Z,6.07
2018-03-18T00:57:30.369Z,6.50
2018-03-18T00:58:32.899Z,6.15
2018-03-18T00:59:36.186Z,5.85
2018-03-18T01:00:39.504Z,6.28
2018-03-18T01:01:42.061Z,6.95
2018-03-18T01:02:44.590Z,6.10
2018-03-18T01:03:47.878Z,6.82
2018-03-18T01:04:51.171Z,6.12
2018-03-18T01:05:54.467Z,6.50
2018-03-18T01:06:57.024Z,6.22
2018-03-18T01:08:00.313Z,5.57
2018-03-18T01:09:03.100Z,6.60
2018-03-18T01:10:05.691Z,7.50
2018-03-18T01:11:09.036Z,6.72
2018-03-18T01:12:12.317Z,6.32
2018-03-18T01:13:15.602Z,6.45
2018-03-18T01:14:18.971Z,7.22
2018-03-18T01:15:21.480Z,6.93
2018-03-18T01:16:24.013Z,6.60
2018-03-18T01:17:27.361Z,6.60
2018-03-18T01:18:29.889Z,6.30
2018-03-18T01:19:32.420Z,5.85
2018-03-18T01:20:35.760Z,5.72
2018-03-18T01:21:38.276Z,6.47
2018-03-18T01:22:41.612Z,6.37
2018-03-18T01:23:44.128Z,6.25
2018-03-18T01:24:47.463Z,6.97
2018-03-18T01:25:49.986Z,7.25
2018-03-18T01:26:53.279Z,6.55
2018-03-18T01:27:55.800Z,6.62
2018-03-18T01:28:58.330Z,6.25
2018-03-18T01:30:00.915Z,6.62
2018-03-18T01:31:03.453Z,7.12
2018-03-18T01:32:05.977Z,7.55
2018-03-18T01:33:08.590Z,6.80
2018-03-18T01:34:11.124Z,6.75
2018-03-18T01:35:14.417Z,6.80
2018-03-18T01:36:17.702Z,6.70
2018-03-18T01:37:21.020Z,5.78
2018-03-18T01:38:23.546Z,7.10
2018-03-18T01:39:26.837Z,5.95
2018-03-18T01:40:29.369Z,7.28
2018-03-18T01:41:31.940Z,6.60
2018-03-18T01:42:34.474Z,7.05
2018-03-18T01:43:36.998Z,7.18
2018-03-18T01:44:40.297Z,6.50
2018-03-18T01:45:42.866Z,6.87
2018-03-18T01:46:45.549Z,5.80
2018-03-18T01:47:48.073Z,6.28
2018-03-18T01:48:51.370Z,7.20
2018-03-18T01:49:54.693Z,6.95
2018-03-18T01:50:57.242Z,7.20
2018-03-18T01:51:59.772Z,6.47
2018-03-18T01:53:14.933Z,6.40
2018-03-18T01:54:18.250Z,7.37
2018-03-18T01:55:20.781Z,6.85
2018-03-18T01:56:23.294Z,6.43
2018-03-18T01:57:25.825Z,6.62
2018-03-18T01:58:29.151Z,6.15
2018-03-18T01:59:31.680Z,6.65
2018-03-18T02:00:34.962Z,6.55
2018-03-18T02:01:38.258Z,6.40
2018-03-18T02:02:40.796Z,6.12
2018-03-18T02:03:43.349Z,6.55
2018-03-18T02:04:45.872Z,6.75
2018-03-18T02:05:48.417Z,7.00
2018-03-18T02:06:50.936Z,7.65
2018-03-18T02:07:54.230Z,6.97
2018-03-18T02:08:56.793Z,7.10
2018-03-18T02:09:59.322Z,7.20
2018-03-18T02:11:01.852Z,7.00
2018-03-18T02:12:05.141Z,6.57
2018-03-18T02:13:08.450Z,6.87
2018-03-18T02:14:11.001Z,6.37
2018-03-18T02:15:13.538Z,7.32
2018-03-18T02:16:16.060Z,6.18
2018-03-18T02:17:18.665Z,7.55
2018-03-18T02:18:21.212Z,6.90
2018-03-18T02:19:23.734Z,7.07
2018-03-18T02:20:26.256Z,7.00
2018-03-18T02:21:28.830Z,6.35
2018-03-18T02:22:31.354Z,7.62
2018-03-18T02:23:33.875Z,7.70
2018-03-18T02:24:37.209Z,6.70
2018-03-18T02:25:39.729Z,6.50
2018-03-18T02:26:43.025Z,7.10
2018-03-18T02:27:46.341Z,6.80
2018-03-18T02:28:48.998Z,7.10
2018-03-18T02:29:51.524Z,6.78
2018-03-18T02:30:54.091Z,6.25
2018-03-18T02:31:56.617Z,6.45
2018-03-18T02:32:59.145Z,5.97
2018-03-18T02:34:01.679Z,6.68
2018-03-18T02:35:04.201Z,7.80
2018-03-18T02:36:06.784Z,6.82
2018-03-18T02:37:09.332Z,6.55
2018-03-18T02:38:11.848Z,6.68
2018-03-18T02:39:14.547Z,6.37
2018-03-18T02:40:17.876Z,6.53
2018-03-18T02:41:20.410Z,6.57
2018-03-18T02:42:22.942Z,7.07
2018-03-18T02:43:26.242Z,6.78
2018-03-18T02:44:29.530Z,7.20
2018-03-18T02:45:32.102Z,7.28
2018-03-18T02:46:34.621Z,6.70
2018-03-18T02:47:37.157Z,7.30
2018-03-18T02:48:39.704Z,6.97
2018-03-18T02:49:42.241Z,7.10
2018-03-18T02:50:44.819Z,6.82
2018-03-18T02:51:48.119Z,6.87
2018-03-18T02:52:50.644Z,7.22
2018-03-18T02:53:53.179Z,6.50
2018-03-18T02:54:55.704Z,6.60
2018-03-18T02:55:59.024Z,6.37
2018-03-18T02:57:01.541Z,6.30
2018-03-18T02:58:04.064Z,6.65
2018-03-18T02:59:08.994Z,7.00
2018-03-18T03:00:11.655Z,6.65
2018-03-18T03:01:14.182Z,6.87
2018-03-18T03:02:16.716Z,7.68
2018-03-18T03:03:19.256Z,6.80
2018-03-18T03:04:21.791Z,6.82
2018-03-18T03:05:24.365Z,6.68
2018-03-18T03:06:26.904Z,7.55
2018-03-18T03:07:30.225Z,6.70
2018-03-18T03:08:32.756Z,7.07
2018-03-18T03:09:36.045Z,6.40
2018-03-18T03:10:39.368Z,6.87
2018-03-18T03:11:41.889Z,7.22
2018-03-18T03:12:45.188Z,6.32
2018-03-18T03:13:47.716Z,6.28
2018-03-18T03:14:50.379Z,6.30
2018-03-18T03:15:52.928Z,6.40
2018-03-18T03:16:55.445Z,6.35
2018-03-18T03:17:58.734Z,7.30
2018-03-18T03:19:02.017Z,6.90
2018-03-18T03:20:05.305Z,6.82
2018-03-18T03:21:07.866Z,6.80
2018-03-18T03:22:11.149Z,6.93
2018-03-18T03:23:14.445Z,7.43
2018-03-18T03:24:16.975Z,7.12
2018-03-18T03:25:19.502Z,7.18
2018-03-18T03:26:22.837Z,6.78
2018-03-18T03:27:26.134Z,6.40
2018-03-18T03:28:29.460Z,6.57
2018-03-18T03:29:31.994Z,7.80
2018-03-18T03:30:34.545Z,6.65
2018-03-18T03:31:37.869Z,6.68
2018-03-18T03:32:40.399Z,6.32
2018-03-18T03:33:43.694Z,7.55
2018-03-18T03:34:46.221Z,7.57
2018-03-18T03:35:49.523Z,7.10
2018-03-18T03:36:52.916Z,6.50
2018-03-18T03:37:56.209Z,7.35
2018-03-18T03:38:59.500Z,7.20
2018-03-18T03:40:02.032Z,6.50
2018-03-18T03:41:05.337Z,7.75
2018-03-18T03:42:08.658Z,6.87
2018-03-18T03:43:12.002Z,6.75
2018-03-18T03:44:15.291Z,7.18
2018-03-18T03:45:18.618Z,7.05
2018-03-18T03:46:21.141Z,7.97
2018-03-18T03:47:24.430Z,7.07
2018-03-18T03:48:27.748Z,6.20
2018-03-18T03:49:30.278Z,6.20
2018-03-18T03:50:33.566Z,6.12
2018-03-18T03:51:36.097Z,6.10
2018-03-18T03:52:38.676Z,6.70
2018-03-18T03:53:41.195Z,6.37
2018-03-18T03:54:43.919Z,6.95
2018-03-18T03:55:47.209Z,7.37
2018-03-18T03:56:50.613Z,5.82
2018-03-18T03:57:53.068Z,6.72
2018-03-18T03:58:56.402Z,6.62
2018-03-18T03:59:58.918Z,6.32
2018-03-18T04:01:02.238Z,7.10
2018-03-18T04:02:04.765Z,6.35
2018-03-18T04:03:07.329Z,6.22
2018-03-18T04:04:10.662Z,6.80
2018-03-18T04:05:13.203Z,7.93
2018-03-18T04:06:15.770Z,7.05
2018-03-18T04:07:18.288Z,6.28
2018-03-18T04:08:20.817Z,6.82
2018-03-18T04:09:23.353Z,6.15
2018-03-18T04:10:25.885Z,6.53
2018-03-18T04:11:28.447Z,7.28
2018-03-18T04:12:30.986Z,6.10
2018-03-18T04:13:33.536Z,6.82
2018-03-18T04:14:36.060Z,6.65
2018-03-18T04:15:39.388Z,6.37
2018-03-18T04:16:41.972Z,5.60
2018-03-18T04:17:44.532Z,7.37
2018-03-18T04:18:47.049Z,6.37
2018-03-18T04:19:49.600Z,7.20
2018-03-18T04:20:52.135Z,6.43
2018-03-18T04:21:54.653Z,6.70
2018-03-18T04:22:57.972Z,5.95
2018-03-18T04:24:00.511Z,7.28
2018-03-18T04:25:03.800Z,6.12
2018-03-18T04:26:06.329Z,6.30
2018-03-18T04:27:08.896Z,6.15
2018-03-18T04:28:11.433Z,6.53
2018-03-18T04:29:13.957Z,6.65
2018-03-18T04:30:17.252Z,5.53
2018-03-18T04:31:19.814Z,6.25
2018-03-18T04:32:23.145Z,6.12
2018-03-18T04:33:25.669Z,6.45
2018-03-18T04:34:28.196Z,6.50
2018-03-18T04:35:30.733Z,5.12
2018-03-18T04:36:33.250Z,5.20
2018-03-18T04:37:36.582Z,5.70
2018-03-18T04:38:39.118Z,5.85
2018-03-18T04:39:41.644Z,5.75
2018-03-18T04:40:44.182Z,7.07
2018-03-18T04:41:46.697Z,5.62
2018-03-18T04:42:50.034Z,5.80
2018-03-18T04:43:52.552Z,5.40
2018-03-18T04:44:55.888Z,7.40
2018-03-18T04:45:58.399Z,5.62
2018-03-18T04:47:01.688Z,6.70
2018-03-18T04:48:05.022Z,6.10
2018-03-18T04:49:07.542Z,6.07
2018-03-18T04:50:10.841Z,6.55
2018-03-18T04:51:13.364Z,5.57
2018-03-18T04:52:15.892Z,6.30
2018-03-18T04:53:18.446Z,5.70
2018-03-18T04:54:20.981Z,6.30
2018-03-18T04:55:24.322Z,5.90
2018-03-18T04:56:26.845Z,7.00
2018-03-18T04:57:29.381Z,5.70
2018-03-18T04:58:31.912Z,6.60
2018-03-18T04:59:34.482Z,6.12
2018-03-18T05:00:37.009Z,6.70
2018-03-18T05:01:40.293Z,7.45
2018-03-18T05:02:43.580Z,6.40
2018-03-18T05:03:46.112Z,5.80
2018-03-18T05:04:48.676Z,6.05
2018-03-18T05:05:51.210Z,6.12
2018-03-18T05:06:53.730Z,5.60
2018-03-18T05:07:57.014Z,5.68
2018-03-18T05:09:00.372Z,6.68
2018-03-18T05:10:02.924Z,7.05
2018-03-18T05:11:05.460Z,6.10
2018-03-18T05:12:07.999Z,6.70
2018-03-18T05:13:11.281Z,5.85
2018-03-18T05:14:14.574Z,6.18
2018-03-18T05:15:17.138Z,6.50
2018-03-18T05:16:20.431Z,6.25
2018-03-18T05:17:22.956Z,5.70
2018-03-18T05:18:25.476Z,6.37
2018-03-18T05:19:28.016Z,6.05
2018-03-18T05:20:31.345Z,6.28
2018-03-18T05:21:33.880Z,6.18
2018-03-18T05:22:36.417Z,6.18
2018-03-18T05:23:38.935Z,6.03
2018-03-18T05:24:41.458Z,6.37
2018-03-18T05:25:44.793Z,5.95
2018-03-18T05:26:47.325Z,5.60
2018-03-18T05:27:50.609Z,5.80
2018-03-18T05:28:53.924Z,5.78
2018-03-18T05:29:56.451Z,6.43
2018-03-18T05:30:59.782Z,5.82
2018-03-18T05:32:02.314Z,6.70
2018-03-18T05:33:04.841Z,5.95
2018-03-18T05:34:07.361Z,7.20
2018-03-18T05:35:09.904Z,6.50
2018-03-18T05:36:13.229Z,6.35
2018-03-18T05:37:15.749Z,5.80
2018-03-18T05:38:19.044Z,5.85
2018-03-18T05:39:21.601Z,6.35
2018-03-18T05:40:24.933Z,6.03
2018-03-18T05:41:27.560Z,5.60
2018-03-18T05:42:30.861Z,6.07
2018-03-18T05:43:33.377Z,5.70
2018-03-18T05:44:35.899Z,5.65
2018-03-18T05:45:38.419Z,5.20
2018-03-18T05:46:40.973Z,5.25
2018-03-18T05:47:43.529Z,5.22
2018-03-18T05:48:46.051Z,5.37
2018-03-18T05:49:48.600Z,5.00
2018-03-18T05:50:51.885Z,5.32
2018-03-18T05:51:55.204Z,5.05
2018-03-18T05:52:57.731Z,5.35
2018-03-18T05:54:01.020Z,5.03
2018-03-18T05:55:04.346Z,5.55
2018-03-18T05:56:06.873Z,4.87
2018-03-18T05:57:10.165Z,5.07
2018-03-18T05:58:12.722Z,4.95
2018-03-18T05:59:16.013Z,5.12
2018-03-18T06:00:18.545Z,5.05
2018-03-18T06:01:21.107Z,4.80
2018-03-18T06:02:23.628Z,5.00
2018-03-18T06:03:26.195Z,4.93
2018-03-18T06:04:28.719Z,5.45
2018-03-18T06:05:31.241Z,4.45
2018-03-18T06:06:33.762Z,5.28
2018-03-18T06:07:37.049Z,5.30
2018-03-18T06:08:40.369Z,5.00
2018-03-18T06:09:42.945Z,4.90
2018-03-18T06:10:45.487Z,6.87
2018-03-18T06:11:48.004Z,4.37
2018-03-18T06:12:50.529Z,5.03
2018-03-18T06:13:53.048Z,5.35
2018-03-18T06:14:55.611Z,5.10
2018-03-18T06:15:58.145Z,4.65
2018-03-18T06:17:00.667Z,5.07
2018-03-18T06:18:03.219Z,5.20
2018-03-18T06:19:06.512Z,5.20
2018-03-18T06:20:09.853Z,5.47
2018-03-18T06:21:12.380Z,4.85
2018-03-18T06:22:14.932Z,5.55
2018-03-18T06:23:18.240Z,6.25
2018-03-18T06:24:20.759Z,5.55
2018-03-18T06:25:23.309Z,5.45
2018-03-18T06:26:25.838Z,6.12
2018-03-18T06:27:28.382Z,4.82
2018-03-18T06:28:31.678Z,5.45
2018-03-18T06:29:34.202Z,5.10
2018-03-18T06:30:36.743Z,5.10
2018-03-18T06:31:39.266Z,5.25
2018-03-18T06:32:42.604Z,6.25
2018-03-18T06:33:45.165Z,5.12
2018-03-18T06:34:47.689Z,5.03
2018-03-18T06:35:50.205Z,5.55
2018-03-18T06:36:52.731Z,6.03
2018-03-18T06:37:55.291Z,5.57
2018-03-18T06:38:57.822Z,6.03
2018-03-18T06:40:00.393Z,4.80
2018-03-18T06:41:02.925Z,5.87
2018-03-18T06:42:05.455Z,5.93
2018-03-18T06:43:07.985Z,5.75
2018-03-18T06:44:10.507Z,4.95
2018-03-18T06:45:13.158Z,5.40
2018-03-18T06:46:15.694Z,5.00
2018-03-18T06:47:18.980Z,4.93
2018-03-18T06:48:21.537Z,5.15
2018-03-18T06:49:24.052Z,5.68
2018-03-18T06:50:26.609Z,5.37
2018-03-18T06:51:29.142Z,5.68
2018-03-18T06:52:31.674Z,4.75
2018-03-18T06:53:34.213Z,4.68
2018-03-18T06:54:36.760Z,4.68
2018-03-18T06:55:40.094Z,5.65
2018-03-18T06:56:42.626Z,5.00
2018-03-18T06:57:45.152Z,4.40
2018-03-18T06:58:47.673Z,4.70
2018-03-18T06:59:50.192Z,5.10
2018-03-18T07:00:53.544Z,4.85
2018-03-18T07:01:56.068Z,4.10
2018-03-18T07:02:58.600Z,4.03
2018-03-18T07:04:01.131Z,4.60
2018-03-18T07:05:03.655Z,4.90
2018-03-18T07:06:06.991Z,3.65
2018-03-18T07:07:10.426Z,3.85
2018-03-18T07:08:13.731Z,4.03
2018-03-18T07:09:16.252Z,4.00
2018-03-18T07:10:18.769Z,3.97
2018-03-18T07:11:21.326Z,3.97
2018-03-18T07:12:23.852Z,4.12
2018-03-18T07:13:26.371Z,3.90
2018-03-18T07:14:28.894Z,4.05
2018-03-18T07:15:32.196Z,4.32
2018-03-18T07:16:34.757Z,3.90
2018-03-18T07:17:38.050Z,4.05
2018-03-18T07:18:40.568Z,4.12
2018-03-18T07:19:43.121Z,4.37
2018-03-18T07:20:45.643Z,4.25
2018-03-18T07:21:48.208Z,4.00
2018-03-18T07:22:51.497Z,5.35
2018-03-18T07:23:54.018Z,4.65
2018-03-18T07:24:56.548Z,4.12
2018-03-18T07:25:59.065Z,4.00
2018-03-18T07:27:01.635Z,4.25
2018-03-18T07:28:04.156Z,4.47
2018-03-18T07:29:06.719Z,4.95
2018-03-18T07:30:09.240Z,4.70
2018-03-18T07:31:12.591Z,4.05
2018-03-18T07:32:15.121Z,4.37
2018-03-18T07:33:17.651Z,4.55
2018-03-18T07:34:20.933Z,4.75
2018-03-18T07:36:32.624Z,4.40
2018-03-18T07:37:35.117Z,3.65
2018-03-18T07:38:37.702Z,4.22
2018-03-18T07:39:40.225Z,4.50
2018-03-18T07:40:43.522Z,4.85
2018-03-18T07:41:46.812Z,4.47
2018-03-18T07:42:49.358Z,5.30
2018-03-18T07:43:52.676Z,4.25
2018-03-18T07:44:55.207Z,5.43
2018-03-18T07:45:58.527Z,4.72
2018-03-18T07:47:01.049Z,4.03
2018-03-18T07:48:03.616Z,5.28
2018-03-18T07:49:06.173Z,4.55
2018-03-18T07:50:08.708Z,4.65
2018-03-18T07:51:11.416Z,3.60
2018-03-18T07:52:13.941Z,3.80
2018-03-18T07:53:16.472Z,4.03
2018-03-18T07:54:19.862Z,4.45
2018-03-18T07:55:22.345Z,4.28
2018-03-18T07:56:24.878Z,4.25
2018-03-18T07:57:28.168Z,3.87
2018-03-18T07:58:31.507Z,4.20
2018-03-18T07:59:34.034Z,4.10
2018-03-18T08:00:36.551Z,3.62
2018-03-18T08:01:39.083Z,3.70
2018-03-18T08:02:41.625Z,3.70
2018-03-18T08:03:44.965Z,3.67
2018-03-18T08:04:47.503Z,4.22
2018-03-18T08:05:50.082Z,4.18
2018-03-18T08:06:52.601Z,4.53
2018-03-18T08:07:55.925Z,3.97
2018-03-18T08:08:58.440Z,3.22
2018-03-18T08:10:00.957Z,3.08
2018-03-18T08:11:03.535Z,3.53
2018-03-18T08:12:06.093Z,3.67
2018-03-18T08:13:08.604Z,4.60
2018-03-18T08:14:11.194Z,3.90
2018-03-18T08:15:13.685Z,3.70
2018-03-18T08:16:16.248Z,3.40
2018-03-18T08:17:18.821Z,4.07
2018-03-18T08:18:21.341Z,4.00
2018-03-18T08:19:24.634Z,3.97
2018-03-18T08:20:27.941Z,3.60
2018-03-18T08:21:30.461Z,3.50
2018-03-18T08:22:33.017Z,3.50
2018-03-18T08:23:35.644Z,3.72
2018-03-18T08:24:38.163Z,3.70
2018-03-18T08:25:40.733Z,3.20
2018-03-18T08:26:43.253Z,3.22
2018-03-18T08:27:45.764Z,4.30
2018-03-18T08:28:48.286Z,2.72
2018-03-18T08:29:50.805Z,3.90
2018-03-18T08:30:54.124Z,3.60
2018-03-18T08:31:56.653Z,3.62
2018-03-18T08:32:59.330Z,3.08
2018-03-18T08:34:02.614Z,3.60
2018-03-18T08:35:05.888Z,3.85
2018-03-18T08:36:09.221Z,3.20
2018-03-18T08:37:11.744Z,3.50
2018-03-18T08:38:15.030Z,3.40
2018-03-18T08:39:18.309Z,3.35
2018-03-18T08:40:21.589Z,3.65
2018-03-18T08:41:24.205Z,3.97
2018-03-18T08:42:29.409Z,3.72
2018-03-18T08:43:31.948Z,3.22
2018-03-18T08:44:34.474Z,3.28
2018-03-18T08:45:37.041Z,3.28
2018-03-18T08:46:39.562Z,3.55
2018-03-18T08:47:42.886Z,3.50
2018-03-18T08:48:45.406Z,3.53
2018-03-18T08:49:48.696Z,2.97
2018-03-18T08:50:52.021Z,3.30
2018-03-18T08:51:54.578Z,3.20
2018-03-18T08:52:57.108Z,3.25
2018-03-18T08:54:00.390Z,3.60
2018-03-18T08:55:03.732Z,3.58
2018-03-18T08:56:06.319Z,3.75
2018-03-18T08:57:08.931Z,3.10
2018-03-18T08:58:11.478Z,3.10
2018-03-18T08:59:14.760Z,3.40
2018-03-18T09:00:17.305Z,3.08
2018-03-18T09:01:19.948Z,3.60
2018-03-18T09:02:22.461Z,4.18
2018-03-18T09:03:25.752Z,3.28
2018-03-18T09:04:29.053Z,3.58
2018-03-18T09:05:31.597Z,4.62
2018-03-18T09:06:35.015Z,6.20
2018-03-18T09:07:37.546Z,3.65
2018-03-18T09:08:40.836Z,4.93
2018-03-18T09:09:44.265Z,6.47
2018-03-18T09:10:46.786Z,3.50
2018-03-18T09:11:50.127Z,3.42
2018-03-18T09:12:52.668Z,6.90
2018-03-18T09:13:55.186Z,4.82
2018-03-18T09:14:57.698Z,3.65
2018-03-18T09:16:00.213Z,3.62
2018-03-18T09:17:02.730Z,3.92
2018-03-18T09:18:05.286Z,3.45
2018-03-18T09:19:07.801Z,3.70
2018-03-18T09:20:10.320Z,4.78
2018-03-18T09:21:12.837Z,4.37
2018-03-18T09:22:15.351Z,3.65
2018-03-18T09:23:17.898Z,3.75
2018-03-18T09:24:21.175Z,3.45
2018-03-18T09:25:24.457Z,3.62
2018-03-18T09:26:27.002Z,3.87
2018-03-18T09:27:29.561Z,4.18
2018-03-18T09:28:32.069Z,4.07
2018-03-18T09:29:34.597Z,3.70
2018-03-18T09:30:37.131Z,3.95
2018-03-18T09:31:39.650Z,3.47
2018-03-18T09:32:42.201Z,3.47
2018-03-18T09:33:44.777Z,3.92
2018-03-18T09:34:47.329Z,3.55
2018-03-18T09:35:49.844Z,3.45
2018-03-18T09:36:52.361Z,3.10
2018-03-18T09:37:54.877Z,3.70
2018-03-18T09:38:57.422Z,3.92
2018-03-18T09:40:00.697Z,3.78
2018-03-18T09:41:04.103Z,3.72
2018-03-18T09:42:07.378Z,4.00
2018-03-18T09:43:10.661Z,3.65
2018-03-18T09:44:13.977Z,3.35
2018-03-18T09:45:16.491Z,4.00
2018-03-18T09:46:19.018Z,5.45
2018-03-18T09:47:21.566Z,4.47
2018-03-18T09:48:24.086Z,19.25
2018-03-18T09:49:26.609Z,13.45
2018-03-18T09:50:29.130Z,5.78
2018-03-18T09:51:31.679Z,4.32
2018-03-18T09:52:34.210Z,6.00
2018-03-18T09:53:36.732Z,4.20
2018-03-18T09:54:40.014Z,3.70
2018-03-18T09:55:43.308Z,4.53
2018-03-18T09:56:46.626Z,5.07
2018-03-18T09:57:49.142Z,3.58
2018-03-18T09:58:51.663Z,4.03
2018-03-18T09:59:54.185Z,3.95
2018-03-18T10:00:57.477Z,3.50
2018-03-18T10:02:00.792Z,3.30
2018-03-18T10:03:03.319Z,3.37
2018-03-18T10:04:06.610Z,3.28
2018-03-18T10:05:09.894Z,3.37
2018-03-18T10:06:13.170Z,3.45
2018-03-18T10:07:16.494Z,3.65
2018-03-18T10:08:19.021Z,3.17
2018-03-18T10:09:21.569Z,3.15
2018-03-18T10:10:24.098Z,3.30
2018-03-18T10:11:26.628Z,3.35
2018-03-18T10:12:29.178Z,3.65
2018-03-18T10:13:31.703Z,3.40
2018-03-18T10:14:34.222Z,3.20
2018-03-18T10:15:37.514Z,4.10
2018-03-18T10:16:40.063Z,2.95
2018-03-18T10:17:43.342Z,3.30
2018-03-18T10:18:45.862Z,3.20
2018-03-18T10:19:48.463Z,3.37
2018-03-18T10:20:51.002Z,3.10
2018-03-18T10:21:53.551Z,2.95
2018-03-18T10:22:56.065Z,3.15
2018-03-18T10:23:58.584Z,2.50
2018-03-18T10:25:01.134Z,2.97
2018-03-18T10:26:03.658Z,3.50
2018-03-18T10:27:06.175Z,3.28
2018-03-18T10:28:08.697Z,3.28
2018-03-18T10:29:11.258Z,2.95
2018-03-18T10:30:13.817Z,3.12
2018-03-18T10:31:16.389Z,2.83
2018-03-18T10:32:18.915Z,3.12
2018-03-18T10:33:21.429Z,3.00
2018-03-18T10:34:23.952Z,3.00
2018-03-18T10:35:26.488Z,3.12
2018-03-18T10:36:29.047Z,3.10
2018-03-18T10:37:31.572Z,2.87
2018-03-18T10:38:34.087Z,2.85
2018-03-18T10:39:36.679Z,3.22
2018-03-18T10:40:39.152Z,2.75
2018-03-18T10:41:41.710Z,3.10
2018-03-18T10:42:44.221Z,3.50
2018-03-18T10:43:46.743Z,2.72
2018-03-18T10:44:49.262Z,3.50
2018-03-18T10:45:52.642Z,2.90
2018-03-18T10:46:55.171Z,3.30
2018-03-18T10:47:57.717Z,3.00
2018-03-18T10:49:00.392Z,3.00
2018-03-18T10:50:02.815Z,2.97
2018-03-18T10:51:06.385Z,3.17
2018-03-18T10:52:09.803Z,2.80
2018-03-18T10:53:12.323Z,3.35
2018-03-18T10:54:14.845Z,3.10
2018-03-18T10:55:17.365Z,2.65
2018-03-18T10:56:19.978Z,3.37
2018-03-18T10:57:22.533Z,3.45
2018-03-18T10:58:25.824Z,3.20
2018-03-18T10:59:28.381Z,3.60
2018-03-18T11:00:37.375Z,3.50
2018-03-18T11:01:45.482Z,3.60
2018-03-18T11:02:50.496Z,2.97
2018-03-18T11:03:58.761Z,3.47
2018-03-18T11:05:01.274Z,3.33
2018-03-18T11:06:03.792Z,3.12
2018-03-18T11:07:06.313Z,3.05
2018-03-18T11:08:08.861Z,2.90
2018-03-18T11:09:11.442Z,3.10
2018-03-18T11:10:14.770Z,3.60
2018-03-18T11:11:17.288Z,3.05
2018-03-18T11:12:19.813Z,2.67
2018-03-18T11:13:22.348Z,3.25
2018-03-18T11:14:24.881Z,3.45
2018-03-18T11:15:27.449Z,3.42
2018-03-18T11:16:29.977Z,3.00
2018-03-18T11:17:32.522Z,3.67
2018-03-18T11:18:35.042Z,3.35
2018-03-18T11:19:37.582Z,3.10
2018-03-18T11:20:40.144Z,3.95
2018-03-18T11:21:42.656Z,3.55
2018-03-18T11:22:45.947Z,3.08
2018-03-18T11:23:48.515Z,3.30
2018-03-18T11:24:51.048Z,3.15
2018-03-18T11:25:53.598Z,3.03
2018-03-18T11:26:56.133Z,3.40
2018-03-18T11:27:58.653Z,3.28
2018-03-18T11:29:01.173Z,2.83
2018-03-18T11:30:03.761Z,3.10
2018-03-18T11:31:06.292Z,4.50
2018-03-18T11:32:08.817Z,3.15
2018-03-18T11:33:11.344Z,2.95
2018-03-18T11:34:23.814Z,3.20
2018-03-18T11:35:26.382Z,3.72
2018-03-18T11:36:29.660Z,3.60
2018-03-18T11:37:32.175Z,2.97
2018-03-18T11:38:34.789Z,2.95
2018-03-18T11:39:37.276Z,3.60
2018-03-18T11:40:39.802Z,3.47
2018-03-18T11:41:42.317Z,3.30
2018-03-18T11:42:44.885Z,24.77
2018-03-18T11:43:47.397Z,4.60
2018-03-18T11:44:49.921Z,6.10
2018-03-18T11:45:52.465Z,2.90
2018-03-18T11:46:54.997Z,3.30
2018-03-18T11:47:57.564Z,3.35
2018-03-18T11:49:00.082Z,4.32
2018-03-18T11:50:02.604Z,3.10
2018-03-18T11:51:05.908Z,2.92
2018-03-18T11:52:08.437Z,3.22
2018-03-18T11:53:11.009Z,3.42
2018-03-18T11:54:13.537Z,2.65
2018-03-18T11:55:16.091Z,3.15
2018-03-18T11:56:18.670Z,3.17
2018-03-18T11:57:21.178Z,3.10
2018-03-18T11:58:23.695Z,3.37
2018-03-18T11:59:26.222Z,3.65
2018-03-18T12:00:29.517Z,2.90
2018-03-18T12:01:32.838Z,3.40
2018-03-18T12:02:35.369Z,3.00
2018-03-18T12:03:38.687Z,2.90
2018-03-18T12:04:41.210Z,3.30
2018-03-18T12:05:44.494Z,3.33
2018-03-18T12:06:47.768Z,2.83
2018-03-18T12:07:50.289Z,2.60
2018-03-18T12:08:59.494Z,3.78
2018-03-18T12:10:02.034Z,3.15
2018-03-18T12:11:05.330Z,3.00
2018-03-18T12:12:07.843Z,3.80
2018-03-18T12:13:10.396Z,3.78
2018-03-18T12:14:12.915Z,3.85
2018-03-18T12:15:16.278Z,3.00
2018-03-18T12:16:18.799Z,9.25
2018-03-18T12:17:21.313Z,5.30
2018-03-18T12:18:23.879Z,3.53
2018-03-18T12:19:26.421Z,2.72
2018-03-18T12:20:28.956Z,5.10
2018-03-18T12:21:31.488Z,3.50
2018-03-18T12:22:34.400Z,3.05
2018-03-18T12:23:36.946Z,3.80
2018-03-18T12:24:40.268Z,2.95
2018-03-18T12:25:42.797Z,3.92
2018-03-18T12:26:46.085Z,3.60
2018-03-18T12:27:48.606Z,4.30
2018-03-18T12:28:51.138Z,2.90
2018-03-18T12:29:53.681Z,3.12
2018-03-18T12:30:57.005Z,3.37
2018-03-18T12:31:59.533Z,3.17
2018-03-18T12:33:02.052Z,2.85
2018-03-18T12:34:04.576Z,2.97
2018-03-18T12:35:07.092Z,3.35
2018-03-18T12:36:09.660Z,4.15
2018-03-18T12:37:12.172Z,3.58
2018-03-18T12:38:14.692Z,3.00
2018-03-18T12:39:17.245Z,3.10
2018-03-18T12:40:31.572Z,3.15
2018-03-18T12:41:34.090Z,3.20
2018-03-18T12:42:49.409Z,2.95
2018-03-18T12:43:51.974Z,3.10
2018-03-18T12:44:54.499Z,3.85
2018-03-18T12:45:57.848Z,2.70
2018-03-18T12:47:01.286Z,3.20
2018-03-18T12:48:03.800Z,5.30
2018-03-18T12:49:06.342Z,5.50
2018-03-18T12:50:08.865Z,9.27
2018-03-18T12:51:12.179Z,4.20
2018-03-18T12:52:14.698Z,9.40
2018-03-18T12:53:18.073Z,6.15
2018-03-18T12:54:20.661Z,7.15
2018-03-18T12:55:23.945Z,7.62
2018-03-18T12:56:27.236Z,4.93
2018-03-18T12:57:30.526Z,2.97
2018-03-18T12:58:33.050Z,3.75
2018-03-18T12:59:35.612Z,3.97
2018-03-18T13:00:38.126Z,3.22
2018-03-18T13:01:40.651Z,3.90
2018-03-18T13:02:43.179Z,3.80
2018-03-18T13:03:45.703Z,3.17
2018-03-18T13:04:49.039Z,3.25
2018-03-18T13:05:51.545Z,2.90
2018-03-18T13:06:54.074Z,3.20
2018-03-18T13:07:56.585Z,3.28
2018-03-18T13:08:59.871Z,3.03
2018-03-18T13:10:03.191Z,3.58
2018-03-18T13:11:05.712Z,3.05
2018-03-18T13:12:09.012Z,2.80
2018-03-18T13:13:11.540Z,3.90
2018-03-18T13:14:14.098Z,3.40
2018-03-18T13:15:16.630Z,3.55
2018-03-18T13:16:19.162Z,3.45
2018-03-18T13:17:21.681Z,3.40
2018-03-18T13:18:24.213Z,3.05
2018-03-18T13:19:27.539Z,3.05
2018-03-18T13:20:30.069Z,3.25
2018-03-18T13:21:32.594Z,2.78
2018-03-18T13:22:35.124Z,2.92
2018-03-18T13:23:37.681Z,3.72
2018-03-18T13:24:40.258Z,3.00
2018-03-18T13:25:42.797Z,3.05
2018-03-18T13:26:45.328Z,3.45
2018-03-18T13:27:47.885Z,2.85
2018-03-18T13:28:50.402Z,3.15
2018-03-18T13:29:52.922Z,2.97
2018-03-18T13:30:55.477Z,4.22
2018-03-18T13:31:57.988Z,3.67
2018-03-18T13:33:01.270Z,3.53
2018-03-18T13:34:04.552Z,3.78
2018-03-18T13:35:07.839Z,4.43
2018-03-18T13:36:11.160Z,3.85
2018-03-18T13:37:13.671Z,4.40
2018-03-18T13:38:16.997Z,3.70
2018-03-18T13:39:19.507Z,2.95
2018-03-18T13:40:22.035Z,3.20
2018-03-18T13:41:24.554Z,3.90
2018-03-18T13:42:27.077Z,3.55
2018-03-18T13:43:29.640Z,3.35
2018-03-18T13:44:32.158Z,2.90
2018-03-18T13:45:35.447Z,3.28
2018-03-18T13:46:38.740Z,3.12
2018-03-18T13:47:41.264Z,3.10
2018-03-18T13:48:43.829Z,3.95
2018-03-18T13:49:46.353Z,3.40
2018-03-18T13:50:48.882Z,8.57
2018-03-18T13:51:52.170Z,7.37
2018-03-18T13:52:55.448Z,7.82
2018-03-18T13:53:58.014Z,10.20
2018-03-18T13:55:00.529Z,5.87
2018-03-18T13:56:03.086Z,7.15
2018-03-18T13:57:05.605Z,7.05
2018-03-18T13:58:08.129Z,3.72